Time;durP1;ratioP1;P1;durP2;ratioP2;P2;SDS_P1;SDS_P2;PMS_P1;PMS_P2;Temp;Humidity;BMP_temperature;BMP_pressure;BME280_temperature;BME280_humidity;BME280_pressure;Samples;Min_cycle;Max_cycle;Signal;HPM_P1;HPM_P2
2021/01/26 00:00:07;;;;;;;10.43;1.70;;;4.30;93.50;;;;;;4991726;28;20121;-50
2021/01/26 00:02:33;;;;;;;10.07;1.70;;;4.40;93.50;;;;;;4986894;28;20133;-55
2021/01/26 00:04:58;;;;;;;6.07;1.42;;;4.30;93.40;;;;;;4989832;28;20118;-54
2021/01/26 00:07:24;;;;;;;10.00;1.40;;;4.30;93.40;;;;;;4989525;28;20499;-54
2021/01/26 00:09:50;;;;;;;12.77;2.17;;;4.40;93.40;;;;;;4989593;28;20129;-54
2021/01/26 00:12:16;;;;;;;10.25;1.60;;;4.40;93.40;;;;;;4993084;28;20117;-53
2021/01/26 00:14:42;;;;;;;16.35;1.92;;;4.40;93.50;;;;;;4984173;28;20046;-53
2021/01/26 00:17:08;;;;;;;6.85;1.40;;;4.40;93.60;;;;;;4991693;28;20514;-52
2021/01/26 00:19:33;;;;;;;16.15;1.63;;;4.40;93.60;;;;;;4990750;28;20177;-52
2021/01/26 00:21:59;;;;;;;15.23;2.13;;;4.40;93.60;;;;;;4992826;28;20042;-54
2021/01/26 00:24:24;;;;;;;10.20;1.30;;;4.40;93.60;;;;;;4987615;28;20525;-53
2021/01/26 00:26:50;;;;;;;14.98;1.50;;;4.50;93.60;;;;;;4991856;28;20453;-53
2021/01/26 00:29:16;;;;;;;13.57;2.83;;;4.50;93.60;;;;;;4991752;28;20050;-54
2021/01/26 00:31:41;;;;;;;9.52;1.40;;;4.50;93.60;;;;;;4991834;28;20078;-52
2021/01/26 00:34:07;;;;;;;9.30;1.45;;;4.50;93.50;;;;;;4992070;28;20038;-54
2021/01/26 00:36:32;;;;;;;5.95;1.50;;;4.50;93.30;;;;;;4987140;28;20070;-52
2021/01/26 00:39:00;;;;;;;13.38;1.50;;;4.50;93.30;;;;;;4987835;28;20042;-50
2021/01/26 00:41:25;;;;;;;13.45;1.58;;;4.50;93.30;;;;;;4986230;28;20050;-53
2021/01/26 00:43:51;;;;;;;6.18;1.55;;;4.50;93.30;;;;;;4989138;28;20455;-53
2021/01/26 00:46:17;;;;;;;6.80;1.20;;;4.50;93.20;;;;;;4992091;28;20046;-51
2021/01/26 00:48:42;;;;;;;9.60;1.52;;;4.40;93.10;;;;;;4989049;28;20047;-51
2021/01/26 00:51:08;;;;;;;10.32;1.17;;;4.40;93.00;;;;;;4986687;28;20038;-53
2021/01/26 00:53:35;;;;;;;9.70;1.10;;;4.40;93.00;;;;;;4990004;28;20045;-53
2021/01/26 00:56:02;;;;;;;8.90;1.23;;;4.40;93.10;;;;;;4991726;28;20487;-53
2021/01/26 00:58:27;;;;;;;4.53;1.10;;;4.40;93.20;;;;;;4988144;28;20042;-53
2021/01/26 01:00:53;;;;;;;12.23;2.08;;;4.40;93.30;;;;;;4991330;28;20687;-50
2021/01/26 01:03:18;;;;;;;8.00;1.77;;;4.40;93.40;;;;;;4992148;28;20058;-52
2021/01/26 01:05:44;;;;;;;10.82;1.45;;;4.40;93.50;;;;;;4988165;28;20074;-53
2021/01/26 01:08:10;;;;;;;14.32;1.70;;;4.40;93.50;;;;;;4991731;28;20050;-50
2021/01/26 01:10:38;;;;;;;11.50;1.60;;;4.40;93.60;;;;;;4991361;28;20047;-53
2021/01/26 01:13:09;;;;;;;11.07;1.73;;;4.40;93.50;;;;;;4991434;28;20584;-51
2021/01/26 01:15:35;;;;;;;8.13;1.73;;;4.50;93.50;;;;;;4987393;28;20050;-52
2021/01/26 01:18:01;;;;;;;14.43;1.80;;;4.50;93.60;;;;;;4991015;28;20038;-51
2021/01/26 01:20:28;;;;;;;10.55;1.80;;;4.50;93.50;;;;;;4986278;28;20093;-52
2021/01/26 01:22:54;;;;;;;13.52;1.58;;;4.50;93.50;;;;;;4989884;28;20141;-53
2021/01/26 01:25:20;;;;;;;8.90;1.48;;;4.50;93.50;;;;;;4990145;28;20042;-51
2021/01/26 01:27:47;;;;;;;9.68;1.70;;;4.50;93.50;;;;;;4984973;28;20077;-53
2021/01/26 01:30:17;;;;;;;7.60;1.42;;;4.50;93.50;;;;;;4990946;28;20050;-53
2021/01/26 01:32:43;;;;;;;12.60;1.67;;;4.50;93.40;;;;;;4991912;28;20050;-52
2021/01/26 01:35:09;;;;;;;5.00;1.13;;;4.60;93.40;;;;;;4978277;28;20042;-53
2021/01/26 01:37:35;;;;;;;6.80;1.13;;;4.60;93.40;;;;;;4986895;28;20065;-53
2021/01/26 01:40:04;;;;;;;4.82;1.10;;;4.50;93.40;;;;;;4990318;28;20042;-54
2021/01/26 01:42:30;;;;;;;6.70;1.30;;;4.60;93.30;;;;;;4984717;28;20081;-53
2021/01/26 01:44:56;;;;;;;7.93;1.10;;;4.60;93.20;;;;;;4988110;28;20503;-52
2021/01/26 01:47:31;;;;;;;10.80;1.73;;;4.50;93.20;;;;;;4990628;28;20097;-51
2021/01/26 01:49:59;;;;;;;8.80;1.60;;;4.60;93.30;;;;;;4982849;28;20388;-51
2021/01/26 01:52:30;;;;;;;10.10;1.40;;;4.60;93.30;;;;;;4990766;28;20129;-53
2021/01/26 01:55:04;;;;;;;9.90;1.40;;;4.60;93.30;;;;;;4990755;28;20556;-54
2021/01/26 01:57:36;;;;;;;11.25;1.20;;;4.60;93.30;;;;;;4990153;28;20451;-51
2021/01/26 02:00:09;;;;;;;9.38;1.42;;;4.60;93.30;;;;;;4989876;28;20568;-53
2021/01/26 02:02:39;;;;;;;9.98;1.38;;;4.60;93.30;;;;;;4985872;28;20499;-52
2021/01/26 02:05:06;;;;;;;11.48;1.30;;;4.60;93.30;;;;;;4989986;28;20442;-54
2021/01/26 02:07:33;;;;;;;9.05;1.42;;;4.60;93.40;;;;;;4984894;28;20571;-53
2021/01/26 02:10:00;;;;;;;12.13;1.73;;;4.60;93.30;;;;;;4987185;28;20395;-52
2021/01/26 02:12:25;;;;;;;8.85;1.85;;;4.60;93.30;;;;;;4986450;28;20039;-51
2021/01/26 02:14:55;;;;;;;15.98;1.85;;;4.60;93.30;;;;;;4984562;28;20113;-53
2021/01/26 02:17:38;;;;;;;9.25;1.90;;;4.60;93.30;;;;;;4982601;28;20521;-54
2021/01/26 02:20:41;;;;;;;8.23;1.42;;;4.60;93.20;;;;;;4981765;28;20124;-54
2021/01/26 02:23:23;;;;;;;6.30;1.33;;;4.60;93.20;;;;;;4983869;28;20053;-53
2021/01/26 02:26:14;;;;;;;11.55;2.35;;;4.60;93.30;;;;;;4989865;28;20038;-53
2021/01/26 02:28:52;;;;;;;11.35;1.58;;;4.60;93.30;;;;;;4983756;28;20461;-51
2021/01/26 02:31:26;;;;;;;9.40;1.52;;;4.60;93.40;;;;;;4990056;28;20100;-53
2021/01/26 02:34:07;;;;;;;8.23;1.45;;;4.60;93.50;;;;;;4990411;28;20042;-53
2021/01/26 02:36:48;;;;;;;10.20;1.60;;;4.50;93.50;;;;;;4987518;28;20046;-50
2021/01/26 02:39:34;;;;;;;9.55;2.00;;;4.60;93.40;;;;;;4991209;28;20043;-51
2021/01/26 02:42:30;;;;;;;8.85;1.60;;;4.50;93.30;;;;;;4991331;28;20121;-52
2021/01/26 02:45:23;;;;;;;6.57;1.50;;;4.50;93.20;;;;;;4984408;28;20125;-53
2021/01/26 02:48:18;;;;;;;9.18;1.80;;;4.50;93.10;;;;;;4989289;28;20250;-54
2021/01/26 02:51:02;;;;;;;7.15;1.80;;;4.40;92.80;;;;;;4941254;28;20048;-50
2021/01/26 02:53:49;;;;;;;6.60;1.92;;;4.40;92.80;;;;;;4993647;28;20039;-51
2021/01/26 02:56:36;;;;;;;4.45;1.88;;;4.40;92.80;;;;;;4985794;28;20034;-51
2021/01/26 02:59:29;;;;;;;10.70;2.25;;;4.30;93.00;;;;;;4989017;28;20037;-52
2021/01/26 03:02:09;;;;;;;9.07;2.53;;;4.20;92.90;;;;;;4990374;28;20406;-50
2021/01/26 03:04:48;;;;;;;9.27;2.80;;;4.10;92.50;;;;;;4986403;28;20054;-53
2021/01/26 03:07:17;;;;;;;8.05;2.45;;;3.90;92.70;;;;;;4990486;28;20051;-51
2021/01/26 03:09:47;;;;;;;9.68;2.88;;;3.80;92.60;;;;;;4985958;28;20043;-52
2021/01/26 03:12:34;;;;;;;7.88;2.83;;;3.70;92.90;;;;;;4990734;28;20101;-53
2021/01/26 03:15:23;;;;;;;9.63;3.30;;;3.60;92.80;;;;;;4992185;28;20049;-53
2021/01/26 03:17:55;;;;;;;8.73;3.22;;;3.50;92.80;;;;;;4987253;28;20481;-53
2021/01/26 03:20:41;;;;;;;9.52;3.30;;;3.50;92.80;;;;;;4987449;28;20066;-52
2021/01/26 03:23:45;;;;;;;9.25;3.38;;;3.40;92.80;;;;;;4989305;28;20085;-53
2021/01/26 03:26:17;;;;;;;6.55;3.25;;;3.30;93.10;;;;;;4984424;28;20053;-53
2021/01/26 03:28:46;;;;;;;7.93;3.97;;;3.30;92.60;;;;;;4984648;28;20043;-50
2021/01/26 03:31:15;;;;;;;7.93;3.83;;;3.20;92.70;;;;;;4993070;28;20779;-53
2021/01/26 03:33:47;;;;;;;7.38;4.05;;;3.10;92.80;;;;;;4989140;28;20044;-53
2021/01/26 03:36:14;;;;;;;7.65;4.05;;;3.00;93.00;;;;;;4992369;28;20072;-53
2021/01/26 03:38:41;;;;;;;8.73;4.13;;;3.00;93.10;;;;;;4986932;28;20042;-53
2021/01/26 03:41:07;;;;;;;9.00;3.70;;;3.00;92.90;;;;;;4992936;28;20042;-51
2021/01/26 03:43:34;;;;;;;9.32;4.38;;;2.90;92.90;;;;;;4989750;28;20478;-51
2021/01/26 03:46:30;;;;;;;9.18;3.97;;;2.90;93.00;;;;;;4992829;28;20038;-53
2021/01/26 03:49:11;;;;;;;8.02;3.80;;;3.00;92.90;;;;;;4991381;28;20050;-52
2021/01/26 03:52:04;;;;;;;8.07;4.35;;;2.90;92.90;;;;;;4981840;28;20069;-52
2021/01/26 03:54:33;;;;;;;;;;;2.90;93.00;;;;;;4993055;28;20046;-54
2021/01/26 03:57:09;;;;;;;8.82;3.50;;;2.90;92.80;;;;;;4984198;28;19917;-53
2021/01/26 03:59:44;;;;;;;6.82;3.60;;;2.80;92.90;;;;;;4990501;28;20038;-52
2021/01/26 04:02:13;;;;;;;7.80;4.07;;;2.70;92.90;;;;;;4973298;28;20057;-53
2021/01/26 04:05:11;;;;;;;8.95;4.03;;;2.70;93.00;;;;;;4993236;28;20076;-55
2021/01/26 04:07:43;;;;;;;9.68;3.92;;;2.70;93.30;;;;;;4991356;28;20049;-52
2021/01/26 04:10:23;;;;;;;12.60;4.68;;;2.70;93.10;;;;;;4993099;28;20051;-49
2021/01/26 04:12:56;;;;;;;8.55;4.18;;;2.70;93.20;;;;;;4991747;28;20050;-53
2021/01/26 04:15:37;;;;;;;7.93;4.18;;;2.70;93.10;;;;;;4990924;28;20076;-52
2021/01/26 04:18:05;;;;;;;10.07;4.90;;;2.80;93.10;;;;;;4985117;28;20560;-49
2021/01/26 04:20:36;;;;;;;9.60;4.55;;;2.80;93.40;;;;;;4992477;28;20502;-56
2021/01/26 04:23:02;;;;;;;11.23;5.07;;;2.80;93.10;;;;;;4992079;28;20108;-49
2021/01/26 04:25:49;;;;;;;10.23;4.68;;;2.80;93.30;;;;;;4992657;28;20267;-49
2021/01/26 04:28:42;;;;;;;10.05;5.32;;;2.80;93.20;;;;;;4984273;28;20049;-49
2021/01/26 04:31:10;;;;;;;8.10;4.30;;;2.80;93.20;;;;;;4975679;28;20192;-49
2021/01/26 04:33:36;;;;;;;9.32;4.78;;;2.80;93.20;;;;;;4991901;28;20043;-55
2021/01/26 04:36:03;;;;;;;9.68;4.78;;;2.90;93.30;;;;;;4991953;28;20074;-52
2021/01/26 04:38:29;;;;;;;10.48;5.05;;;2.90;93.30;;;;;;4988876;28;20038;-54
2021/01/26 04:41:02;;;;;;;8.70;4.78;;;2.90;93.10;;;;;;4984995;28;20050;-54
2021/01/26 04:43:34;;;;;;;10.50;5.22;;;2.90;93.10;;;;;;4983468;28;20046;-55
2021/01/26 04:46:17;;;;;;;11.05;5.15;;;2.80;93.00;;;;;;4989530;28;20046;-52
2021/01/26 04:49:22;;;;;;;10.63;5.22;;;2.80;93.10;;;;;;4992436;28;20049;-55
2021/01/26 04:52:22;;;;;;;9.95;5.10;;;2.80;93.10;;;;;;4991387;28;20074;-54
2021/01/26 04:55:04;;;;;;;10.45;5.57;;;2.80;93.00;;;;;;4988698;28;20039;-54
2021/01/26 04:57:38;;;;;;;9.95;5.15;;;2.80;93.10;;;;;;4988574;28;20034;-52
2021/01/26 05:00:12;;;;;;;12.13;5.38;;;2.80;93.10;;;;;;4987865;28;20454;-55
2021/01/26 05:03:02;;;;;;;12.02;6.20;;;2.90;92.80;;;;;;4990047;28;20046;-56
2021/01/26 05:05:30;;;;;;;11.45;5.75;;;2.90;92.60;;;;;;4984889;28;20068;-56
2021/01/26 05:08:01;;;;;;;11.98;6.03;;;2.80;92.80;;;;;;4987887;28;20038;-56
2021/01/26 05:10:48;;;;;;;12.50;5.88;;;2.80;92.90;;;;;;4991463;28;20041;-56
2021/01/26 05:13:26;;;;;;;12.27;6.63;;;2.80;93.00;;;;;;4987960;28;20132;-56
2021/01/26 05:16:00;;;;;;;13.32;6.00;;;2.90;92.90;;;;;;4989484;28;20038;-56
2021/01/26 05:18:38;;;;;;;12.88;7.10;;;2.90;92.90;;;;;;4991614;28;20040;-56
2021/01/26 05:21:07;;;;;;;16.08;8.13;;;2.90;92.50;;;;;;4990463;28;20458;-56
2021/01/26 05:23:38;;;;;;;13.85;8.00;;;2.90;92.50;;;;;;4989956;28;20120;-56
2021/01/26 05:26:12;;;;;;;14.77;8.20;;;2.90;92.40;;;;;;4990650;28;20515;-55
2021/01/26 05:28:45;;;;;;;14.63;7.90;;;2.80;92.60;;;;;;4982974;28;20045;-56
2021/01/26 05:31:26;;;;;;;14.35;7.20;;;2.80;92.60;;;;;;4987664;28;20034;-55
2021/01/26 05:34:13;;;;;;;14.75;7.30;;;2.80;92.40;;;;;;4987010;28;20379;-55
2021/01/26 05:36:43;;;;;;;19.65;8.07;;;2.80;92.70;;;;;;4987131;28;20446;-55
2021/01/26 05:39:19;;;;;;;17.58;7.68;;;2.70;92.80;;;;;;4991043;28;20078;-55
2021/01/26 05:41:45;;;;;;;12.85;7.53;;;2.70;92.70;;;;;;4990387;28;20038;-55
2021/01/26 05:44:11;;;;;;;16.38;8.00;;;2.70;92.90;;;;;;4988547;28;20034;-55
2021/01/26 05:46:45;;;;;;;13.48;7.80;;;2.80;92.50;;;;;;4973393;28;20034;-56
2021/01/26 05:49:12;;;;;;;13.13;7.25;;;2.70;92.70;;;;;;4991021;28;20125;-55
2021/01/26 05:51:43;;;;;;;13.63;7.40;;;2.70;92.80;;;;;;4989166;28;20073;-56
2021/01/26 05:54:14;;;;;;;13.88;7.18;;;2.60;92.90;;;;;;4990440;28;20479;-56
2021/01/26 05:56:48;;;;;;;12.43;7.03;;;2.60;92.90;;;;;;4985764;28;20038;-56
2021/01/26 05:59:27;;;;;;;11.07;6.78;;;2.60;92.90;;;;;;4988511;28;20049;-54
2021/01/26 06:01:53;;;;;;;14.60;7.85;;;2.70;93.20;;;;;;4985723;28;20038;-56
2021/01/26 06:04:26;;;;;;;12.70;7.25;;;2.70;93.00;;;;;;4989866;28;20043;-55
2021/01/26 06:06:59;;;;;;;;;;;2.70;93.00;;;;;;4991124;28;20065;-55
2021/01/26 06:09:29;;;;;;;;;;;2.70;92.90;;;;;;4987988;28;20670;-55
2021/01/26 06:12:12;;;;;;;16.05;7.53;;;2.70;92.90;;;;;;4983847;28;19922;-55
2021/01/26 06:14:39;;;;;;;15.20;6.80;;;2.70;92.90;;;;;;4988501;28;20058;-55
2021/01/26 06:17:08;;;;;;;15.35;7.43;;;2.70;92.90;;;;;;4986510;28;20491;-54
2021/01/26 06:19:34;;;;;;;14.27;7.45;;;2.60;92.90;;;;;;4984992;28;20162;-56
2021/01/26 06:22:00;;;;;;;14.10;7.38;;;2.60;92.90;;;;;;4987483;28;20125;-55
2021/01/26 06:24:29;;;;;;;14.13;7.47;;;2.60;93.00;;;;;;4988038;28;20042;-56
2021/01/26 06:27:30;;;;;;;16.85;7.90;;;2.60;93.10;;;;;;4989047;28;20057;-52
2021/01/26 06:30:04;;;;;;;13.45;7.43;;;2.60;93.10;;;;;;4977104;28;20495;-54
2021/01/26 06:33:14;;;;;;;13.55;7.05;;;2.50;93.10;;;;;;4986336;28;20092;-55
2021/01/26 06:36:02;;;;;;;13.98;7.40;;;2.60;93.20;;;;;;4980221;28;20046;-56
2021/01/26 06:38:53;;;;;;;15.10;7.40;;;2.60;93.20;;;;;;4988832;28;20046;-55
2021/01/26 06:41:43;;;;;;;12.80;7.47;;;2.60;93.20;;;;;;4987509;28;20064;-53
2021/01/26 06:44:21;;;;;;;15.05;7.47;;;2.60;93.20;;;;;;4989049;28;20137;-55
2021/01/26 06:47:08;;;;;;;15.57;7.85;;;2.60;93.20;;;;;;4987419;28;20117;-55
2021/01/26 06:50:32;;;;;;;12.98;6.72;;;2.60;93.30;;;;;;4988721;28;20061;-55
2021/01/26 06:53:12;;;;;;;12.25;7.50;;;2.60;93.30;;;;;;4989539;28;20093;-54
2021/01/26 06:56:00;;;;;;;14.77;7.80;;;2.50;93.30;;;;;;4989757;28;20054;-56
2021/01/26 06:58:50;;;;;;;14.27;7.20;;;2.60;93.30;;;;;;4990564;28;20043;-55
2021/01/26 07:02:24;;;;;;;13.32;7.78;;;2.50;93.30;;;;;;4990032;28;20046;-56
2021/01/26 07:05:24;;;;;;;14.27;7.97;;;2.50;93.40;;;;;;4984969;28;20418;-56
2021/01/26 07:08:28;;;;;;;16.95;7.40;;;2.60;93.30;;;;;;4946944;28;20473;-56
2021/01/26 07:11:21;;;;;;;14.63;8.18;;;2.50;93.30;;;;;;4989028;28;20138;-55
2021/01/26 07:13:52;;;;;;;;;;;2.60;93.60;;;;;;4988084;28;20037;-56
2021/01/26 07:16:36;;;;;;;15.60;7.22;;;2.50;93.30;;;;;;4990138;28;20384;-55
2021/01/26 07:19:31;;;;;;;14.35;7.22;;;2.60;93.30;;;;;;4988179;28;20524;-55
2021/01/26 07:22:08;;;;;;;14.35;7.20;;;2.60;93.40;;;;;;4989600;28;20049;-55
2021/01/26 07:25:01;;;;;;;14.13;7.50;;;2.60;93.30;;;;;;4991141;28;20038;-56
2021/01/26 07:27:36;;;;;;;14.90;8.07;;;2.60;93.20;;;;;;4993251;28;20050;-56
2021/01/26 07:30:10;;;;;;;15.90;7.57;;;2.60;93.20;;;;;;4990580;28;20085;-51
2021/01/26 07:32:44;;;;;;;12.32;6.97;;;2.60;93.30;;;;;;4994014;28;20052;-53
2021/01/26 07:35:22;;;;;;;11.82;7.07;;;2.60;93.30;;;;;;4988396;28;20454;-53
2021/01/26 07:38:10;;;;;;;14.23;7.15;;;2.60;93.30;;;;;;4993523;28;20049;-52
2021/01/26 07:40:47;;;;;;;14.07;6.78;;;2.60;93.30;;;;;;4982284;28;20045;-53
2021/01/26 07:43:35;;;;;;;14.30;7.43;;;2.60;93.40;;;;;;4991212;28;20498;-52
2021/01/26 07:46:14;;;;;;;15.90;7.78;;;2.60;93.40;;;;;;4986175;28;20030;-50
2021/01/26 07:48:52;;;;;;;13.25;7.00;;;2.60;93.50;;;;;;4988022;28;20046;-52
2021/01/26 07:51:23;;;;;;;14.60;7.18;;;2.60;93.40;;;;;;4993168;28;20458;-55
2021/01/26 07:54:08;;;;;;;14.48;7.82;;;2.60;93.40;;;;;;4993697;28;20042;-56
2021/01/26 07:56:40;;;;;;;17.65;8.00;;;2.60;93.40;;;;;;4988704;28;20050;-57
2021/01/26 07:59:31;;;;;;;16.80;7.80;;;2.70;93.50;;;;;;4991967;28;20054;-57
2021/01/26 08:02:03;;;;;;;15.48;7.75;;;2.70;93.50;;;;;;4984155;28;20437;-57
2021/01/26 08:04:40;;;;;;;13.55;7.22;;;2.70;93.50;;;;;;4985982;28;20388;-56
2021/01/26 08:07:07;;;;;;;13.98;7.47;;;2.70;93.50;;;;;;4985038;28;20081;-55
2021/01/26 08:09:35;;;;;;;17.55;7.80;;;2.70;93.50;;;;;;4992749;28;20038;-56
2021/01/26 08:12:05;;;;;;;16.58;7.97;;;2.70;93.50;;;;;;4992501;28;20355;-55
2021/01/26 08:14:53;;;;;;;19.70;8.63;;;2.70;93.50;;;;;;4993335;28;20045;-56
2021/01/26 08:17:36;;;;;;;16.45;8.38;;;2.70;93.50;;;;;;4992856;28;20078;-56
2021/01/26 08:20:07;;;;;;;17.77;8.48;;;2.70;93.50;;;;;;4986062;28;20053;-55
2021/01/26 08:22:36;;;;;;;17.65;8.65;;;2.70;93.50;;;;;;4992955;28;20042;-56
2021/01/26 08:25:11;;;;;;;19.25;9.13;;;2.70;93.60;;;;;;4993124;28;20047;-57
2021/01/26 08:27:37;;;;;;;21.63;9.55;;;2.70;93.60;;;;;;4980213;28;20039;-56
2021/01/26 08:30:11;;;;;;;22.02;9.05;;;2.80;93.60;;;;;;4993343;28;20043;-55
2021/01/26 08:32:36;;;;;;;18.63;8.70;;;2.80;93.50;;;;;;4987111;28;20042;-55
2021/01/26 08:35:20;;;;;;;18.20;9.55;;;2.80;93.60;;;;;;4992766;28;20038;-56
2021/01/26 08:37:54;;;;;;;17.83;8.75;;;2.80;93.60;;;;;;4992486;28;20061;-56
2021/01/26 08:40:27;;;;;;;17.85;8.77;;;2.90;93.60;;;;;;4993244;28;20082;-56
2021/01/26 08:42:56;;;;;;;18.23;9.52;;;2.90;93.70;;;;;;4982055;28;20047;-56
2021/01/26 08:45:25;;;;;;;18.73;8.55;;;2.90;93.50;;;;;;4992281;28;20517;-56
2021/01/26 08:48:03;;;;;;;17.10;8.95;;;2.90;93.40;;;;;;4993271;28;20046;-56
2021/01/26 08:51:10;;;;;;;18.23;9.05;;;2.90;93.40;;;;;;4992887;28;20085;-55
2021/01/26 08:53:38;;;;;;;18.25;8.68;;;2.80;93.50;;;;;;4992676;28;20042;-57
2021/01/26 08:56:22;;;;;;;18.52;8.90;;;2.80;93.40;;;;;;4991902;28;20046;-56
2021/01/26 08:58:51;;;;;;;20.65;9.00;;;2.80;93.40;;;;;;4992283;28;20395;-56
2021/01/26 09:01:23;;;;;;;25.67;14.20;;;2.80;93.40;;;;;;4992643;28;20055;-55
2021/01/26 09:04:11;;;;;;;22.57;12.43;;;2.70;93.40;;;;;;4992555;28;20034;-54
2021/01/26 09:06:42;;;;;;;16.80;9.00;;;2.70;93.50;;;;;;4990471;28;20144;-54
2021/01/26 09:09:11;;;;;;;18.27;8.98;;;2.70;93.60;;;;;;4992467;28;20503;-54
2021/01/26 09:11:45;;;;;;;17.83;8.48;;;2.70;93.60;;;;;;4992055;28;20050;-56
2021/01/26 09:14:18;;;;;;;20.73;9.43;;;2.80;93.60;;;;;;4985313;28;20046;-56
2021/01/26 09:16:44;;;;;;;;;;;2.80;93.60;;;;;;4992055;28;20112;-55
2021/01/26 09:19:24;;;;;;;19.45;8.18;;;2.90;93.80;;;;;;4991820;28;20444;-56
2021/01/26 09:21:50;;;;;;;20.48;9.00;;;3.00;93.60;;;;;;4990367;28;20046;-55
2021/01/26 09:24:21;;;;;;;22.10;9.13;;;3.00;93.60;;;;;;4992327;28;20124;-56
2021/01/26 09:26:47;;;;;;;18.45;8.27;;;3.10;93.60;;;;;;4991980;28;20042;-56
2021/01/26 09:29:27;;;;;;;20.25;9.40;;;3.20;93.60;;;;;;4990933;28;20132;-56
2021/01/26 09:31:53;;;;;;;17.83;9.30;;;3.20;93.60;;;;;;4980068;28;20435;-56
2021/01/26 09:34:28;;;;;;;17.33;8.77;;;3.30;93.50;;;;;;4989804;28;20060;-55
2021/01/26 09:37:13;;;;;;;18.33;8.38;;;3.40;93.50;;;;;;4991569;28;20394;-56
2021/01/26 09:39:39;;;;;;;19.67;8.38;;;3.40;93.40;;;;;;4973911;28;20126;-57
2021/01/26 09:42:31;;;;;;;18.17;8.52;;;3.40;93.40;;;;;;4992062;28;20141;-56
2021/01/26 09:45:03;;;;;;;18.48;8.63;;;3.50;93.50;;;;;;4987978;28;20049;-56
2021/01/26 09:47:29;;;;;;;21.80;8.75;;;3.60;93.50;;;;;;4990196;28;20414;-56
2021/01/26 09:50:12;;;;;;;17.70;8.75;;;3.60;93.50;;;;;;4990851;28;20038;-56
2021/01/26 09:52:40;;;;;;;20.70;8.60;;;3.60;93.50;;;;;;4991606;28;20062;-56
2021/01/26 09:55:14;;;;;;;17.92;8.15;;;3.70;93.40;;;;;;4991402;28;20049;-56
2021/01/26 09:57:41;;;;;;;16.88;7.80;;;3.70;93.40;;;;;;4981253;28;20047;-56
2021/01/26 10:00:13;;;;;;;14.77;7.22;;;3.80;93.50;;;;;;4974136;28;20043;-56
2021/01/26 10:02:40;;;;;;;14.93;7.40;;;3.90;93.50;;;;;;4991395;28;20046;-56
2021/01/26 10:05:10;;;;;;;20.98;7.57;;;3.90;93.30;;;;;;4973898;28;20047;-55
2021/01/26 10:07:35;;;;;;;14.68;7.38;;;4.00;93.30;;;;;;4990930;28;20246;-56
2021/01/26 10:10:27;;;;;;;16.60;7.40;;;4.00;93.30;;;;;;4991376;28;20050;-56
2021/01/26 10:12:53;;;;;;;16.70;6.55;;;4.10;93.30;;;;;;4990956;28;20050;-56
2021/01/26 10:15:30;;;;;;;16.33;6.75;;;4.20;93.30;;;;;;4990949;28;20049;-56
2021/01/26 10:18:14;;;;;;;14.30;6.95;;;4.30;93.20;;;;;;4991229;28;20038;-56
2021/01/26 10:20:47;;;;;;;14.38;6.72;;;4.30;93.20;;;;;;4988936;28;20593;-56
2021/01/26 10:23:15;;;;;;;15.60;6.70;;;4.40;93.20;;;;;;4991059;28;20081;-56
2021/01/26 10:25:43;;;;;;;16.33;6.28;;;4.40;93.20;;;;;;4990640;28;20046;-55
2021/01/26 10:28:14;;;;;;;12.00;6.25;;;4.50;93.40;;;;;;4991011;28;20058;-56
2021/01/26 10:30:45;;;;;;;14.70;5.72;;;4.50;93.20;;;;;;4991448;28;20494;-57
2021/01/26 10:33:27;;;;;;;15.95;5.90;;;4.60;93.00;;;;;;4990877;28;20050;-57
2021/01/26 10:35:53;;;;;;;16.13;6.20;;;4.60;92.90;;;;;;4990656;28;20050;-57
2021/01/26 10:38:32;;;;;;;10.18;4.63;;;4.70;93.00;;;;;;4989697;28;20046;-57
2021/01/26 10:41:11;;;;;;;13.35;5.10;;;4.70;92.90;;;;;;4991298;28;20085;-57
2021/01/26 10:43:38;;;;;;;11.90;5.60;;;4.70;92.80;;;;;;4974500;28;20054;-57
2021/01/26 10:46:04;;;;;;;13.38;5.00;;;4.80;92.80;;;;;;4966657;28;20514;-57
2021/01/26 10:48:35;;;;;;;12.18;4.95;;;4.80;92.80;;;;;;4977614;28;20073;-57
2021/01/26 10:51:14;;;;;;;13.68;5.25;;;4.80;92.80;;;;;;4979801;28;20511;-56
2021/01/26 10:53:45;;;;;;;10.10;4.30;;;4.90;92.90;;;;;;4990439;28;20042;-57
2021/01/26 10:56:12;;;;;;;10.00;4.68;;;5.00;92.70;;;;;;4990579;28;20066;-57
2021/01/26 10:58:41;;;;;;;13.52;4.85;;;5.00;92.50;;;;;;4982068;28;20043;-57
2021/01/26 11:01:07;;;;;;;11.65;4.40;;;5.00;92.50;;;;;;4985764;28;20074;-57
2021/01/26 11:03:34;;;;;;;8.85;3.95;;;5.10;92.30;;;;;;4994887;28;20051;-57
2021/01/26 11:06:00;;;;;;;9.52;4.07;;;5.10;92.30;;;;;;4994830;28;20129;-57
2021/01/26 11:08:26;;;;;;;8.45;4.07;;;5.20;92.20;;;;;;4994627;28;20149;-56
2021/01/26 11:10:52;;;;;;;11.00;4.40;;;5.20;91.90;;;;;;4970212;28;20043;-57
2021/01/26 11:13:17;;;;;;;9.52;4.25;;;5.20;91.70;;;;;;4967353;28;20054;-56
2021/01/26 11:15:43;;;;;;;8.93;3.90;;;5.30;91.80;;;;;;4987446;28;20558;-57
2021/01/26 11:18:09;;;;;;;8.63;4.15;;;5.30;91.80;;;;;;4989625;28;20169;-56
2021/01/26 11:20:35;;;;;;;8.88;3.85;;;5.30;91.90;;;;;;4993018;28;20042;-57
2021/01/26 11:23:02;;;;;;;8.60;3.63;;;5.40;91.70;;;;;;4993955;28;20050;-57
2021/01/26 11:25:27;;;;;;;8.68;3.70;;;5.50;91.60;;;;;;4992998;28;20435;-56
2021/01/26 11:27:54;;;;;;;13.43;3.88;;;5.50;91.60;;;;;;4994463;28;20045;-57
2021/01/26 11:30:21;;;;;;;6.90;3.67;;;5.60;91.40;;;;;;4992780;28;20367;-57
2021/01/26 11:32:47;;;;;;;11.13;3.88;;;5.60;91.00;;;;;;4993926;28;20042;-57
2021/01/26 11:35:17;;;;;;;6.88;3.45;;;5.60;90.80;;;;;;4996526;28;20049;-57
2021/01/26 11:37:44;;;;;;;8.35;4.10;;;5.60;90.50;;;;;;4993383;28;20046;-56
2021/01/26 11:40:12;;;;;;;7.45;3.85;;;5.70;90.80;;;;;;4994703;28;20050;-57
2021/01/26 11:42:38;;;;;;;13.30;4.18;;;5.70;90.70;;;;;;4990277;28;20137;-56
2021/01/26 11:45:06;;;;;;;10.38;3.60;;;5.80;90.70;;;;;;5000016;28;20104;-57
2021/01/26 11:47:33;;;;;;;8.45;3.83;;;5.80;90.80;;;;;;4993034;28;20070;-57
2021/01/26 11:50:03;;;;;;;10.43;4.03;;;5.90;90.80;;;;;;4983362;28;20050;-57
2021/01/26 11:52:29;;;;;;;15.43;4.65;;;6.00;90.60;;;;;;4981850;28;20077;-57
2021/01/26 11:54:55;;;;;;;7.20;3.10;;;6.10;90.40;;;;;;4991707;28;20573;-56
2021/01/26 11:57:21;;;;;;;10.45;3.30;;;6.10;90.00;;;;;;4993683;28;20046;-57
2021/01/26 11:59:48;;;;;;;8.98;3.13;;;6.20;89.80;;;;;;4993577;28;20101;-57
2021/01/26 12:02:14;;;;;;;6.78;3.15;;;6.20;90.00;;;;;;4992536;28;20042;-57
2021/01/26 12:04:39;;;;;;;5.57;3.15;;;6.20;89.50;;;;;;4993666;28;20065;-57
2021/01/26 12:07:05;;;;;;;5.60;2.80;;;6.20;89.40;;;;;;4988610;28;20487;-57
2021/01/26 12:09:30;;;;;;;8.60;2.85;;;6.20;88.10;;;;;;4984348;28;20064;-57
2021/01/26 12:11:56;;;;;;;8.93;2.80;;;6.20;87.60;;;;;;4990372;28;20699;-57
2021/01/26 12:14:22;;;;;;;6.00;2.65;;;6.20;87.60;;;;;;4993970;28;20406;-57
2021/01/26 12:16:47;;;;;;;11.68;4.30;;;6.20;87.50;;;;;;4990334;28;20457;-57
2021/01/26 12:19:14;;;;;;;12.25;3.58;;;6.30;88.00;;;;;;4993128;28;20034;-57
2021/01/26 12:21:40;;;;;;;9.57;3.95;;;6.20;88.30;;;;;;4992551;28;20125;-57
2021/01/26 12:24:08;;;;;;;10.93;4.18;;;6.20;87.80;;;;;;4993435;28;20140;-57
2021/01/26 12:26:33;;;;;;;9.10;3.50;;;6.20;88.30;;;;;;4993529;28;20130;-57
2021/01/26 12:28:59;;;;;;;8.73;3.30;;;6.10;86.90;;;;;;4993419;28;20117;-57
2021/01/26 12:31:24;;;;;;;8.85;3.53;;;6.10;87.70;;;;;;4993147;28;20520;-56
2021/01/26 12:33:50;;;;;;;9.88;3.78;;;6.10;88.50;;;;;;4991895;28;20049;-56
2021/01/26 12:36:16;;;;;;;11.90;3.30;;;6.10;88.80;;;;;;4984094;28;20042;-56
2021/01/26 12:38:41;;;;;;;8.30;3.47;;;6.10;88.20;;;;;;4984875;28;20043;-56
2021/01/26 12:41:07;;;;;;;11.13;3.97;;;6.10;88.20;;;;;;4987125;28;20054;-56
2021/01/26 12:43:32;;;;;;;10.88;3.78;;;6.10;88.90;;;;;;4993293;28;20038;-56
2021/01/26 12:45:58;;;;;;;9.48;3.53;;;6.10;88.50;;;;;;4991897;28;20062;-56
2021/01/26 12:48:24;;;;;;;13.30;3.75;;;6.10;88.70;;;;;;4992386;28;20125;-56
2021/01/26 12:50:50;;;;;;;11.43;3.45;;;6.10;88.70;;;;;;4992946;28;20506;-56
2021/01/26 12:53:15;;;;;;;9.63;2.80;;;6.10;88.80;;;;;;4991840;28;20121;-56
2021/01/26 12:55:43;;;;;;;7.80;2.67;;;6.10;88.10;;;;;;4992454;28;20100;-57
2021/01/26 12:58:09;;;;;;;7.07;2.53;;;6.10;88.50;;;;;;4992992;28;20133;-55
2021/01/26 13:00:35;;;;;;;4.13;2.30;;;6.10;88.10;;;;;;4986817;28;20577;-56
2021/01/26 13:03:01;;;;;;;6.10;1.90;;;6.10;88.30;;;;;;4982093;28;20070;-56
2021/01/26 13:05:27;;;;;;;7.07;1.90;;;6.10;88.40;;;;;;4992064;28;20038;-56
2021/01/26 13:07:53;;;;;;;8.48;1.38;;;6.20;88.30;;;;;;4989634;28;20046;-56
2021/01/26 13:10:19;;;;;;;3.88;1.77;;;6.20;86.80;;;;;;4992705;28;20505;-56
2021/01/26 13:12:46;;;;;;;3.03;1.10;;;6.20;87.00;;;;;;4992984;28;20034;-57
2021/01/26 13:15:14;;;;;;;6.75;1.35;;;6.20;87.10;;;;;;4992189;28;20499;-56
2021/01/26 13:17:40;;;;;;;7.32;1.25;;;6.20;86.70;;;;;;4982342;28;20089;-57
2021/01/26 13:20:08;;;;;;;10.45;1.13;;;6.20;87.00;;;;;;4990034;28;20042;-55
2021/01/26 13:22:34;;;;;;;5.88;1.08;;;6.20;86.60;;;;;;4990594;28;20133;-55
2021/01/26 13:25:00;;;;;;;7.93;1.25;;;6.20;86.80;;;;;;4992329;28;20058;-57